sensor_id;sensor_type;location;lat;lon;timestamp;pressure;altitude;pressure_sealevel;temperature;humidity
16120;BME280;12670;53.502;10.252;2023-02-18T00:00:53;101252.56;;;6.97;100.00
16120;BME280;12670;53.502;10.252;2023-02-18T00:03:57;101267.28;;;7.10;100.00
16120;BME280;12670;53.502;10.252;2023-02-18T00:07:00;101254.09;;;7.09;100.00
16120;BME280;12670;53.502;10.252;2023-02-18T00:10:06;101256.72;;;7.10;100.00
16120;BME280;12670;53.502;10.252;2023-02-18T00:13:09;101263.78;;;7.08;100.00
16120;BME280;12670;53.502;10.252;2023-02-18T00:16:12;101266.53;;;7.02;100.00
16120;BME280;12670;53.502;10.252;2023-02-18T00:19:16;101248.81;;;7.09;100.00
16120;BME280;12670;53.502;10.252;2023-02-18T00:22:19;101253.22;;;7.08;100.00
16120;BME280;12670;53.502;10.252;2023-02-18T00:25:23;101249.59;;;7.15;100.00
16120;BME280;12670;53.502;10.252;2023-02-18T00:28:25;101260.31;;;7.06;100.00
16120;BME280;12670;53.502;10.252;2023-02-18T00:31:30;101270.97;;;7.00;100.00
16120;BME280;12670;53.502;10.252;2023-02-18T00:34:33;101274.44;;;7.02;100.00
16120;BME280;12670;53.502;10.252;2023-02-18T00:37:36;101274.31;;;7.08;100.00
16120;BME280;12670;53.502;10.252;2023-02-18T00:40:40;101276.97;;;7.10;100.00
16120;BME280;12670;53.502;10.252;2023-02-18T00:43:43;101265.31;;;7.21;100.00
16120;BME280;12670;53.502;10.252;2023-02-18T00:46:46;101274.63;;;6.93;100.00
16120;BME280;12670;53.502;10.252;2023-02-18T00:49:50;101278.06;;;6.98;100.00
16120;BME280;12670;53.502;10.252;2023-02-18T00:52:52;101276.19;;;7.03;100.00
16120;BME280;12670;53.502;10.252;2023-02-18T00:55:57;101268.63;;;6.83;100.00
16120;BME280;12670;53.502;10.252;2023-02-18T00:58:59;101283.53;;;6.86;100.00
16120;BME280;12670;53.502;10.252;2023-02-18T01:02:02;101280.81;;;6.92;100.00
16120;BME280;12670;53.502;10.252;2023-02-18T01:05:05;101280.13;;;6.81;100.00
16120;BME280;12670;53.502;10.252;2023-02-18T01:08:09;101284.44;;;6.85;100.00
16120;BME280;12670;53.502;10.252;2023-02-18T01:11:13;101291.31;;;6.93;100.00
16120;BME280;12670;53.502;10.252;2023-02-18T01:14:16;101281.41;;;7.06;100.00
16120;BME280;12670;53.502;10.252;2023-02-18T01:17:18;101287.72;;;6.98;100.00
16120;BME280;12670;53.502;10.252;2023-02-18T01:20:21;101284.09;;;7.05;100.00
16120;BME280;12670;53.502;10.252;2023-02-18T01:23:24;101287.78;;;6.94;100.00
16120;BME280;12670;53.502;10.252;2023-02-18T01:26:28;101286.97;;;6.91;100.00
16120;BME280;12670;53.502;10.252;2023-02-18T01:29:31;101290.38;;;6.96;100.00
16120;BME280;12670;53.502;10.252;2023-02-18T01:32:33;101282.47;;;6.96;100.00
16120;BME280;12670;53.502;10.252;2023-02-18T01:35:37;101282.47;;;6.96;100.00
16120;BME280;12670;53.502;10.252;2023-02-18T01:38:40;101282.53;;;6.91;100.00
16120;BME280;12670;53.502;10.252;2023-02-18T01:41:44;101287.94;;;6.87;100.00
16120;BME280;12670;53.502;10.252;2023-02-18T01:44:47;101273.91;;;6.83;100.00
16120;BME280;12670;53.502;10.252;2023-02-18T01:47:50;101284.22;;;6.97;100.00
16120;BME280;12670;53.502;10.252;2023-02-18T01:51:00;101281.56;;;6.97;100.00
16120;BME280;12670;53.502;10.252;2023-02-18T01:54:06;101275.78;;;6.77;100.00
16120;BME280;12670;53.502;10.252;2023-02-18T01:57:12;101277.50;;;6.79;100.00
16120;BME280;12670;53.502;10.252;2023-02-18T02:00:17;101265.50;;;6.63;100.00
16120;BME280;12670;53.502;10.252;2023-02-18T02:03:21;101271.47;;;6.73;100.00
16120;BME280;12670;53.502;10.252;2023-02-18T02:06:24;101268.91;;;6.70;100.00
16120;BME280;12670;53.502;10.252;2023-02-18T02:09:28;101260.25;;;6.60;100.00
16120;BME280;12670;53.502;10.252;2023-02-18T02:12:42;101258.66;;;6.50;100.00
16120;BME280;12670;53.502;10.252;2023-02-18T02:15:52;101262.03;;;6.59;100.00
16120;BME280;12670;53.502;10.252;2023-02-18T02:19:04;101268.13;;;6.61;100.00
16120;BME280;12670;53.502;10.252;2023-02-18T02:22:39;101262.53;;;6.80;100.00
16120;BME280;12670;53.502;10.252;2023-02-18T02:26:06;101266.50;;;6.54;100.00
16120;BME280;12670;53.502;10.252;2023-02-18T02:29:37;101258.53;;;6.59;100.00
16120;BME280;12670;53.502;10.252;2023-02-18T02:33:10;101259.44;;;6.56;100.00
16120;BME280;12670;53.502;10.252;2023-02-18T02:36:20;101257.88;;;6.45;100.00
16120;BME280;12670;53.502;10.252;2023-02-18T02:39:29;101255.22;;;6.45;100.00
16120;BME280;12670;53.502;10.252;2023-02-18T02:42:44;101250.47;;;6.66;100.00
16120;BME280;12670;53.502;10.252;2023-02-18T02:45:53;101234.22;;;6.41;100.00
16120;BME280;12670;53.502;10.252;2023-02-18T02:48:59;101239.56;;;6.37;100.00
16120;BME280;12670;53.502;10.252;2023-02-18T02:52:09;101228.03;;;6.43;100.00
16120;BME280;12670;53.502;10.252;2023-02-18T02:55:12;101225.91;;;6.64;100.00
16120;BME280;12670;53.502;10.252;2023-02-18T02:58:17;101227.00;;;6.53;100.00
16120;BME280;12670;53.502;10.252;2023-02-18T03:01:28;101229.66;;;6.50;100.00
16120;BME280;12670;53.502;10.252;2023-02-18T03:04:49;101221.00;;;6.43;100.00
16120;BME280;12670;53.502;10.252;2023-02-18T03:08:06;101222.53;;;6.56;100.00
16120;BME280;12670;53.502;10.252;2023-02-18T03:11:12;101219.06;;;6.54;100.00
16120;BME280;12670;53.502;10.252;2023-02-18T03:14:21;101215.53;;;6.55;100.00
16120;BME280;12670;53.502;10.252;2023-02-18T03:17:31;101226.75;;;6.66;100.00
16120;BME280;12670;53.502;10.252;2023-02-18T03:20:38;101226.81;;;6.63;100.00
16120;BME280;12670;53.502;10.252;2023-02-18T03:23:48;101233.63;;;6.75;100.00
16120;BME280;12670;53.502;10.252;2023-02-18T03:26:58;101223.28;;;6.64;100.00
16120;BME280;12670;53.502;10.252;2023-02-18T03:30:04;101216.88;;;6.78;100.00
16120;BME280;12670;53.502;10.252;2023-02-18T03:33:10;101224.66;;;6.84;100.00
16120;BME280;12670;53.502;10.252;2023-02-18T03:36:14;101212.53;;;6.75;100.00
16120;BME280;12670;53.502;10.252;2023-02-18T03:39:20;101223.09;;;6.75;100.00
16120;BME280;12670;53.502;10.252;2023-02-18T03:42:25;101212.63;;;6.71;100.00
16120;BME280;12670;53.502;10.252;2023-02-18T03:45:28;101221.16;;;6.83;100.00
16120;BME280;12670;53.502;10.252;2023-02-18T03:48:31;101217.97;;;6.66;100.00
16120;BME280;12670;53.502;10.252;2023-02-18T03:51:34;101225.75;;;6.72;100.00
16120;BME280;12670;53.502;10.252;2023-02-18T03:54:37;101240.53;;;6.82;100.00
16120;BME280;12670;53.502;10.252;2023-02-18T03:57:40;101238.91;;;6.74;100.00
16120;BME280;12670;53.502;10.252;2023-02-18T04:00:43;101239.81;;;6.73;100.00
16120;BME280;12670;53.502;10.252;2023-02-18T04:03:45;101235.97;;;6.92;100.00
16120;BME280;12670;53.502;10.252;2023-02-18T04:06:48;101235.34;;;6.78;100.00
16120;BME280;12670;53.502;10.252;2023-02-18T04:09:52;101228.03;;;6.93;100.00
16120;BME280;12670;53.502;10.252;2023-02-18T04:12:55;101236.06;;;6.86;100.00
16120;BME280;12670;53.502;10.252;2023-02-18T04:15:57;101237.69;;;6.93;100.00
16120;BME280;12670;53.502;10.252;2023-02-18T04:19:00;101235.97;;;6.92;100.00
16120;BME280;12670;53.502;10.252;2023-02-18T04:22:02;101219.31;;;6.88;100.00
16120;BME280;12670;53.502;10.252;2023-02-18T04:25:07;101219.34;;;6.85;100.00
16120;BME280;12670;53.502;10.252;2023-02-18T04:28:12;101210.63;;;6.83;100.00
16120;BME280;12670;53.502;10.252;2023-02-18T04:31:15;101207.03;;;6.86;100.00
16120;BME280;12670;53.502;10.252;2023-02-18T04:34:18;101207.28;;;6.75;100.00
16120;BME280;12670;53.502;10.252;2023-02-18T04:37:21;101192.13;;;6.85;100.00
16120;BME280;12670;53.502;10.252;2023-02-18T04:40:25;101191.72;;;6.60;100.00
16120;BME280;12670;53.502;10.252;2023-02-18T04:43:30;101187.41;;;6.54;100.00
16120;BME280;12670;53.502;10.252;2023-02-18T04:46:33;101172.34;;;6.61;100.00
16120;BME280;12670;53.502;10.252;2023-02-18T04:49:36;101178.06;;;6.84;100.00
16120;BME280;12670;53.502;10.252;2023-02-18T04:52:38;101174.75;;;6.73;100.00
16120;BME280;12670;53.502;10.252;2023-02-18T04:55:42;101172.75;;;6.86;100.00
16120;BME280;12670;53.502;10.252;2023-02-18T04:58:45;101171.09;;;6.82;100.00
16120;BME280;12670;53.502;10.252;2023-02-18T05:01:48;101168.38;;;6.85;100.00
16120;BME280;12670;53.502;10.252;2023-02-18T05:04:50;101174.41;;;6.91;100.00
16120;BME280;12670;53.502;10.252;2023-02-18T05:07:53;101168.53;;;6.77;100.00
16120;BME280;12670;53.502;10.252;2023-02-18T05:10:57;101177.81;;;6.98;100.00
16120;BME280;12670;53.502;10.252;2023-02-18T05:14:00;101169.47;;;6.75;100.00
16120;BME280;12670;53.502;10.252;2023-02-18T05:17:02;101158.00;;;6.77;100.00
16120;BME280;12670;53.502;10.252;2023-02-18T05:20:06;101167.56;;;6.83;100.00
16120;BME280;12670;53.502;10.252;2023-02-18T05:23:10;101149.91;;;6.85;100.00
16120;BME280;12670;53.502;10.252;2023-02-18T05:26:14;101160.31;;;6.94;100.00
16120;BME280;12670;53.502;10.252;2023-02-18T05:29:17;101144.88;;;6.73;100.00
16120;BME280;12670;53.502;10.252;2023-02-18T05:32:19;101148.06;;;6.90;100.00
16120;BME280;12670;53.502;10.252;2023-02-18T05:35:22;101143.03;;;6.78;100.00
16120;BME280;12670;53.502;10.252;2023-02-18T05:38:24;101147.13;;;6.94;100.00
16120;BME280;12670;53.502;10.252;2023-02-18T05:41:28;101142.28;;;7.14;100.00
16120;BME280;12670;53.502;10.252;2023-02-18T05:44:31;101139.97;;;6.98;100.00
16120;BME280;12670;53.502;10.252;2023-02-18T05:47:34;101141.06;;;6.89;100.00
16120;BME280;12670;53.502;10.252;2023-02-18T05:50:36;101129.56;;;6.91;100.00
16120;BME280;12670;53.502;10.252;2023-02-18T05:53:39;101134.56;;;7.05;100.00
16120;BME280;12670;53.502;10.252;2023-02-18T05:56:43;101119.56;;;7.07;100.00
16120;BME280;12670;53.502;10.252;2023-02-18T05:59:46;101118.38;;;6.80;100.00
16120;BME280;12670;53.502;10.252;2023-02-18T06:02:48;101116.97;;;7.06;100.00
16120;BME280;12670;53.502;10.252;2023-02-18T06:05:51;101129.94;;;7.16;100.00
16120;BME280;12670;53.502;10.252;2023-02-18T06:08:54;101127.09;;;6.84;100.00
16120;BME280;12670;53.502;10.252;2023-02-18T06:11:58;101120.13;;;6.80;100.00
16120;BME280;12670;53.502;10.252;2023-02-18T06:15:01;101115.97;;;6.70;100.00
16120;BME280;12670;53.502;10.252;2023-02-18T06:18:04;101094.81;;;6.71;100.00
16120;BME280;12670;53.502;10.252;2023-02-18T06:21:06;101110.94;;;6.57;100.00
16120;BME280;12670;53.502;10.252;2023-02-18T06:24:09;101113.09;;;6.35;100.00
16120;BME280;12670;53.502;10.252;2023-02-18T06:27:13;101098.63;;;6.58;100.00
16120;BME280;12670;53.502;10.252;2023-02-18T06:30:16;101087.13;;;6.60;100.00
16120;BME280;12670;53.502;10.252;2023-02-18T06:33:19;101076.47;;;6.66;100.00
16120;BME280;12670;53.502;10.252;2023-02-18T06:36:21;101066.78;;;6.68;100.00
16120;BME280;12670;53.502;10.252;2023-02-18T06:39:24;101063.84;;;6.82;100.00
16120;BME280;12670;53.502;10.252;2023-02-18T06:42:28;101050.22;;;6.60;100.00
16120;BME280;12670;53.502;10.252;2023-02-18T06:45:30;101058.94;;;6.62;100.00
16120;BME280;12670;53.502;10.252;2023-02-18T06:48:33;101060.75;;;6.60;100.00
16120;BME280;12670;53.502;10.252;2023-02-18T06:51:36;101041.75;;;6.46;100.00
16120;BME280;12670;53.502;10.252;2023-02-18T06:54:38;101042.66;;;6.44;100.00
16120;BME280;12670;53.502;10.252;2023-02-18T06:57:42;101028.19;;;6.64;100.00
16120;BME280;12670;53.502;10.252;2023-02-18T07:00:45;101021.47;;;6.90;100.00
16120;BME280;12670;53.502;10.252;2023-02-18T07:03:48;101023.59;;;7.13;100.00
16120;BME280;12670;53.502;10.252;2023-02-18T07:06:50;101021.00;;;7.11;100.00
16120;BME280;12670;53.502;10.252;2023-02-18T07:09:53;101006.53;;;7.28;100.00
16120;BME280;12670;53.502;10.252;2023-02-18T07:12:57;101002.03;;;7.31;100.00
16120;BME280;12670;53.502;10.252;2023-02-18T07:16:00;101001.25;;;7.28;100.00
16120;BME280;12670;53.502;10.252;2023-02-18T07:19:02;100986.75;;;7.08;100.00
16120;BME280;12670;53.502;10.252;2023-02-18T07:22:05;100982.63;;;6.98;100.00
16120;BME280;12670;53.502;10.252;2023-02-18T07:25:08;100985.19;;;7.00;100.00
16120;BME280;12670;53.502;10.252;2023-02-18T07:28:11;100984.41;;;6.96;100.00
16120;BME280;12670;53.502;10.252;2023-02-18T07:31:14;100990.88;;;7.20;100.00
16120;BME280;12670;53.502;10.252;2023-02-18T07:34:18;100982.22;;;7.13;100.00
16120;BME280;12670;53.502;10.252;2023-02-18T07:37:20;100957.50;;;7.17;100.00
16120;BME280;12670;53.502;10.252;2023-02-18T07:40:23;100950.06;;;7.35;100.00
16120;BME280;12670;53.502;10.252;2023-02-18T07:43:27;100934.09;;;7.39;100.00
16120;BME280;12670;53.502;10.252;2023-02-18T07:46:29;100916.22;;;7.49;100.00
16120;BME280;12670;53.502;10.252;2023-02-18T07:49:33;100916.00;;;7.58;100.00
16120;BME280;12670;53.502;10.252;2023-02-18T07:52:36;100913.44;;;7.55;100.00
16120;BME280;12670;53.502;10.252;2023-02-18T07:55:38;100909.50;;;7.39;100.00
16120;BME280;12670;53.502;10.252;2023-02-18T07:58:54;100913.81;;;7.41;100.00
16120;BME280;12670;53.502;10.252;2023-02-18T08:01:56;100908.31;;;7.49;100.00
16120;BME280;12670;53.502;10.252;2023-02-18T08:04:59;100887.06;;;7.54;100.00
16120;BME280;12670;53.502;10.252;2023-02-18T08:08:02;100871.19;;;7.22;100.00
16120;BME280;12670;53.502;10.252;2023-02-18T08:11:05;100856.47;;;7.46;100.00
16120;BME280;12670;53.502;10.252;2023-02-18T08:14:20;100847.66;;;7.47;100.00
16120;BME280;12670;53.502;10.252;2023-02-18T08:17:23;100848.84;;;7.68;100.00
16120;BME280;12670;53.502;10.252;2023-02-18T08:20:26;100841.22;;;7.58;100.00
16120;BME280;12670;53.502;10.252;2023-02-18T08:23:31;100837.22;;;7.43;100.00
16120;BME280;12670;53.502;10.252;2023-02-18T08:26:33;100835.81;;;7.30;100.00
16120;BME280;12670;53.502;10.252;2023-02-18T08:29:37;100853.34;;;7.65;100.00
16120;BME280;12670;53.502;10.252;2023-02-18T08:32:40;100848.44;;;7.18;100.00
16120;BME280;12670;53.502;10.252;2023-02-18T08:35:43;100845.22;;;7.40;100.00
16120;BME280;12670;53.502;10.252;2023-02-18T08:38:46;100839.38;;;7.29;100.00
16120;BME280;12670;53.502;10.252;2023-02-18T08:41:48;100826.31;;;7.55;100.00
16120;BME280;12670;53.502;10.252;2023-02-18T08:44:52;100815.28;;;7.41;100.00
16120;BME280;12670;53.502;10.252;2023-02-18T08:47:55;100807.75;;;7.58;100.00
16120;BME280;12670;53.502;10.252;2023-02-18T08:51:20;100803.91;;;7.70;100.00
16120;BME280;12670;53.502;10.252;2023-02-18T08:54:23;100807.97;;;7.82;100.00
16120;BME280;12670;53.502;10.252;2023-02-18T08:57:26;100806.22;;;7.81;100.00
16120;BME280;12670;53.502;10.252;2023-02-18T09:00:31;100791.31;;;7.78;100.00
16120;BME280;12670;53.502;10.252;2023-02-18T09:03:34;100786.66;;;7.88;100.00
16120;BME280;12670;53.502;10.252;2023-02-18T09:06:37;100783.34;;;7.80;100.00
16120;BME280;12670;53.502;10.252;2023-02-18T09:09:40;100772.56;;;7.87;100.00
16120;BME280;12670;53.502;10.252;2023-02-18T09:12:43;100756.59;;;7.92;100.00
16120;BME280;12670;53.502;10.252;2023-02-18T09:15:55;100739.00;;;7.91;100.00
16120;BME280;12670;53.502;10.252;2023-02-18T09:18:57;100720.31;;;7.97;100.00
16120;BME280;12670;53.502;10.252;2023-02-18T09:22:00;100709.72;;;7.98;100.00
16120;BME280;12670;53.502;10.252;2023-02-18T09:25:04;100705.53;;;7.62;100.00
16120;BME280;12670;53.502;10.252;2023-02-18T09:28:07;100691.63;;;7.85;100.00
16120;BME280;12670;53.502;10.252;2023-02-18T09:31:13;100688.00;;;7.89;100.00
16120;BME280;12670;53.502;10.252;2023-02-18T09:34:16;100687.06;;;7.90;100.00
16120;BME280;12670;53.502;10.252;2023-02-18T09:37:19;100693.47;;;7.83;100.00
16120;BME280;12670;53.502;10.252;2023-02-18T09:40:25;100689.81;;;7.87;100.00
16120;BME280;12670;53.502;10.252;2023-02-18T09:43:33;100677.53;;;7.86;100.00
16120;BME280;12670;53.502;10.252;2023-02-18T09:46:42;100667.44;;;7.98;100.00
16120;BME280;12670;53.502;10.252;2023-02-18T09:49:50;100661.31;;;7.98;100.00
16120;BME280;12670;53.502;10.252;2023-02-18T09:52:55;100650.34;;;7.82;100.00
16120;BME280;12670;53.502;10.252;2023-02-18T09:56:00;100659.44;;;7.44;100.00
16120;BME280;12670;53.502;10.252;2023-02-18T09:59:05;100653.28;;;7.45;100.00
16120;BME280;12670;53.502;10.252;2023-02-18T10:02:13;100629.88;;;7.62;100.00
16120;BME280;12670;53.502;10.252;2023-02-18T10:05:17;100635.03;;;7.65;100.00
16120;BME280;12670;53.502;10.252;2023-02-18T10:08:24;100640.94;;;7.73;100.00
16120;BME280;12670;53.502;10.252;2023-02-18T10:11:29;100614.81;;;7.64;100.00
16120;BME280;12670;53.502;10.252;2023-02-18T10:14:32;100562.41;;;7.52;100.00
16120;BME280;12670;53.502;10.252;2023-02-18T10:17:37;100604.25;;;7.64;100.00
16120;BME280;12670;53.502;10.252;2023-02-18T10:20:40;100608.81;;;7.59;100.00
16120;BME280;12670;53.502;10.252;2023-02-18T10:23:49;100587.03;;;7.79;100.00
16120;BME280;12670;53.502;10.252;2023-02-18T10:26:55;100596.72;;;7.80;100.00
16120;BME280;12670;53.502;10.252;2023-02-18T10:30:03;100572.97;;;7.52;100.00
16120;BME280;12670;53.502;10.252;2023-02-18T10:33:26;100591.31;;;7.57;100.00
16120;BME280;12670;53.502;10.252;2023-02-18T10:36:35;100589.16;;;7.68;100.00
16120;BME280;12670;53.502;10.252;2023-02-18T10:39:47;100578.91;;;7.87;100.00
16120;BME280;12670;53.502;10.252;2023-02-18T10:43:02;100574.00;;;8.01;100.00
16120;BME280;12670;53.502;10.252;2023-02-18T10:46:16;100569.72;;;7.97;100.00
16120;BME280;12670;53.502;10.252;2023-02-18T10:49:37;100561.41;;;7.83;100.00
16120;BME280;12670;53.502;10.252;2023-02-18T10:52:46;100557.84;;;8.10;100.00
16120;BME280;12670;53.502;10.252;2023-02-18T10:55:50;100548.88;;;8.14;100.00
16120;BME280;12670;53.502;10.252;2023-02-18T10:59:00;100541.06;;;8.11;100.00
16120;BME280;12670;53.502;10.252;2023-02-18T11:02:12;100535.03;;;8.33;100.00
16120;BME280;12670;53.502;10.252;2023-02-18T11:05:22;100526.69;;;8.45;100.00
16120;BME280;12670;53.502;10.252;2023-02-18T11:08:27;100524.69;;;8.51;100.00
16120;BME280;12670;53.502;10.252;2023-02-18T11:11:32;100520.88;;;8.59;100.00
16120;BME280;12670;53.502;10.252;2023-02-18T11:14:39;100516.00;;;8.71;100.00
16120;BME280;12670;53.502;10.252;2023-02-18T11:17:44;100507.28;;;8.69;100.00
16120;BME280;12670;53.502;10.252;2023-02-18T11:20:55;100496.69;;;8.69;100.00
16120;BME280;12670;53.502;10.252;2023-02-18T11:24:08;100490.31;;;8.75;100.00
16120;BME280;12670;53.502;10.252;2023-02-18T11:27:17;100488.31;;;8.58;100.00
16120;BME280;12670;53.502;10.252;2023-02-18T11:30:24;100494.75;;;8.74;100.00
16120;BME280;12670;53.502;10.252;2023-02-18T11:33:32;100469.78;;;8.81;100.00
16120;BME280;12670;53.502;10.252;2023-02-18T11:36:37;100460.53;;;8.70;100.00
16120;BME280;12670;53.502;10.252;2023-02-18T11:39:42;100459.66;;;8.69;100.00
16120;BME280;12670;53.502;10.252;2023-02-18T11:42:46;100457.97;;;8.67;100.00
16120;BME280;12670;53.502;10.252;2023-02-18T11:46:07;100454.44;;;8.68;100.00
16120;BME280;12670;53.502;10.252;2023-02-18T11:49:20;100455.78;;;8.78;100.00
16120;BME280;12670;53.502;10.252;2023-02-18T11:52:26;100437.78;;;8.88;100.00
16120;BME280;12670;53.502;10.252;2023-02-18T11:55:30;100451.88;;;9.10;100.00
16120;BME280;12670;53.502;10.252;2023-02-18T11:58:37;100446.81;;;9.26;100.00
16120;BME280;12670;53.502;10.252;2023-02-18T12:01:44;100457.78;;;9.39;100.00
16120;BME280;12670;53.502;10.252;2023-02-18T12:04:51;100461.75;;;9.49;100.00
16120;BME280;12670;53.502;10.252;2023-02-18T12:07:59;100459.91;;;9.51;100.00
16120;BME280;12670;53.502;10.252;2023-02-18T12:11:09;100486.50;;;9.48;100.00
16120;BME280;12670;53.502;10.252;2023-02-18T12:14:17;100484.72;;;9.48;100.00
16120;BME280;12670;53.502;10.252;2023-02-18T12:17:34;100488.22;;;9.49;100.00
16120;BME280;12670;53.502;10.252;2023-02-18T12:21:00;100502.03;;;9.57;100.00
16120;BME280;12670;53.502;10.252;2023-02-18T12:24:19;100498.31;;;9.61;100.00
16120;BME280;12670;53.502;10.252;2023-02-18T12:27:29;100487.13;;;9.54;100.00
16120;BME280;12670;53.502;10.252;2023-02-18T12:30:53;100500.94;;;9.63;100.00
16120;BME280;12670;53.502;10.252;2023-02-18T12:34:11;100510.50;;;9.65;100.00
16120;BME280;12670;53.502;10.252;2023-02-18T12:37:40;100508.03;;;9.60;100.00
16120;BME280;12670;53.502;10.252;2023-02-18T12:41:01;100511.88;;;9.53;100.00
16120;BME280;12670;53.502;10.252;2023-02-18T12:44:31;100514.00;;;9.45;100.00
16120;BME280;12670;53.502;10.252;2023-02-18T12:47:45;100516.94;;;9.38;100.00
16120;BME280;12670;53.502;10.252;2023-02-18T12:51:03;100519.28;;;9.45;100.00
16120;BME280;12670;53.502;10.252;2023-02-18T12:54:21;100523.91;;;9.40;100.00
16120;BME280;12670;53.502;10.252;2023-02-18T12:57:35;100527.59;;;9.36;100.00
16120;BME280;12670;53.502;10.252;2023-02-18T13:00:55;100529.38;;;9.35;100.00
16120;BME280;12670;53.502;10.252;2023-02-18T13:07:45;100546.13;;;9.36;100.00
16120;BME280;12670;53.502;10.252;2023-02-18T13:11:10;100546.13;;;9.36;100.00
16120;BME280;12670;53.502;10.252;2023-02-18T13:14:20;100538.59;;;9.25;100.00
16120;BME280;12670;53.502;10.252;2023-02-18T13:17:26;100556.22;;;9.26;100.00
16120;BME280;12670;53.502;10.252;2023-02-18T13:20:34;100562.50;;;9.24;100.00
16120;BME280;12670;53.502;10.252;2023-02-18T13:23:40;100554.94;;;9.37;100.00
16120;BME280;12670;53.502;10.252;2023-02-18T13:26:47;100579.38;;;9.21;100.00
16120;BME280;12670;53.502;10.252;2023-02-18T13:30:06;100573.00;;;9.25;100.00
16120;BME280;12670;53.502;10.252;2023-02-18T13:33:17;100572.91;;;9.28;100.00
16120;BME280;12670;53.502;10.252;2023-02-18T13:36:31;100571.00;;;9.32;100.00
16120;BME280;12670;53.502;10.252;2023-02-18T13:39:44;100588.50;;;9.36;100.00
16120;BME280;12670;53.502;10.252;2023-02-18T13:42:50;100596.22;;;9.19;100.00
16120;BME280;12670;53.502;10.252;2023-02-18T13:46:08;100604.00;;;9.23;100.00
16120;BME280;12670;53.502;10.252;2023-02-18T13:49:12;100593.34;;;9.25;100.00
16120;BME280;12670;53.502;10.252;2023-02-18T13:52:18;100605.59;;;9.27;100.00
16120;BME280;12670;53.502;10.252;2023-02-18T13:55:24;100606.47;;;9.28;100.00
16120;BME280;12670;53.502;10.252;2023-02-18T13:58:33;100601.16;;;9.28;100.00
16120;BME280;12670;53.502;10.252;2023-02-18T14:01:42;100614.69;;;9.20;100.00
16120;BME280;12670;53.502;10.252;2023-02-18T14:04:51;100612.16;;;9.17;100.00
16120;BME280;12670;53.502;10.252;2023-02-18T14:08:05;100627.47;;;9.32;100.00
16120;BME280;12670;53.502;10.252;2023-02-18T14:11:40;100610.44;;;9.16;100.00
16120;BME280;12670;53.502;10.252;2023-02-18T14:14:42;100621.09;;;9.15;100.00
16120;BME280;12670;53.502;10.252;2023-02-18T14:17:48;100636.78;;;9.19;100.00
16120;BME280;12670;53.502;10.252;2023-02-18T14:20:51;100625.25;;;9.20;100.00
16120;BME280;12670;53.502;10.252;2023-02-18T14:24:06;100644.38;;;9.28;100.00
16120;BME280;12670;53.502;10.252;2023-02-18T14:27:15;100649.56;;;9.31;100.00
16120;BME280;12670;53.502;10.252;2023-02-18T14:30:23;100660.28;;;9.28;100.00
16120;BME280;12670;53.502;10.252;2023-02-18T14:33:29;100663.25;;;9.19;100.00
16120;BME280;12670;53.502;10.252;2023-02-18T14:36:38;100691.09;;;9.06;100.00
16120;BME280;12670;53.502;10.252;2023-02-18T14:39:52;100697.69;;;8.69;100.00
16120;BME280;12670;53.502;10.252;2023-02-18T14:43:03;100703.72;;;8.48;100.00
16120;BME280;12670;53.502;10.252;2023-02-18T14:46:15;100723.22;;;8.70;100.00
16120;BME280;12670;53.502;10.252;2023-02-18T14:49:35;100726.94;;;8.38;100.00
16120;BME280;12670;53.502;10.252;2023-02-18T14:52:41;100719.06;;;8.63;100.00
16120;BME280;12670;53.502;10.252;2023-02-18T14:55:47;100725.63;;;8.23;100.00
16120;BME280;12670;53.502;10.252;2023-02-18T14:58:52;100731.00;;;8.20;100.00
16120;BME280;12670;53.502;10.252;2023-02-18T15:01:58;100735.28;;;8.24;100.00
16120;BME280;12670;53.502;10.252;2023-02-18T15:05:16;100739.47;;;8.32;100.00
16120;BME280;12670;53.502;10.252;2023-02-18T15:08:20;100736.22;;;8.51;100.00
16120;BME280;12670;53.502;10.252;2023-02-18T15:11:31;100742.56;;;8.46;100.00
16120;BME280;12670;53.502;10.252;2023-02-18T15:14:38;100749.50;;;8.20;100.00
16120;BME280;12670;53.502;10.252;2023-02-18T15:17:46;100764.94;;;8.06;100.00
16120;BME280;12670;53.502;10.252;2023-02-18T15:20:51;100770.47;;;7.98;100.00
16120;BME280;12670;53.502;10.252;2023-02-18T15:23:54;100779.63;;;8.15;100.00
16120;BME280;12670;53.502;10.252;2023-02-18T15:27:01;100774.81;;;8.29;100.00
16120;BME280;12670;53.502;10.252;2023-02-18T15:30:18;100795.28;;;8.22;100.00
16120;BME280;12670;53.502;10.252;2023-02-18T15:33:21;100807.22;;;8.36;100.00
16120;BME280;12670;53.502;10.252;2023-02-18T15:36:26;100817.72;;;8.37;100.00
16120;BME280;12670;53.502;10.252;2023-02-18T15:39:29;100834.47;;;8.38;100.00
16120;BME280;12670;53.502;10.252;2023-02-18T15:42:35;100829.09;;;8.11;100.00
16120;BME280;12670;53.502;10.252;2023-02-18T15:45:40;100842.94;;;8.19;100.00
16120;BME280;12670;53.502;10.252;2023-02-18T15:48:46;100848.75;;;8.01;100.00
16120;BME280;12670;53.502;10.252;2023-02-18T15:51:55;100855.66;;;8.07;100.00
16120;BME280;12670;53.502;10.252;2023-02-18T15:55:01;100862.34;;;7.89;100.00
16120;BME280;12670;53.502;10.252;2023-02-18T15:58:06;100859.19;;;7.43;100.00
16120;BME280;12670;53.502;10.252;2023-02-18T16:01:25;100863.66;;;7.74;100.00
16120;BME280;12670;53.502;10.252;2023-02-18T16:04:31;100859.22;;;7.74;100.00
16120;BME280;12670;53.502;10.252;2023-02-18T16:07:50;100863.94;;;7.63;100.00